Time;durP1;ratioP1;P1;durP2;ratioP2;P2;SDS_P1;SDS_P2;PMS_P1;PMS_P2;Temp;Humidity;BMP_temperature;BMP_pressure;BME280_temperature;BME280_humidity;BME280_pressure;Samples;Min_cycle;Max_cycle;Signal;HPM_P1;HPM_P2
2021/07/10 00:01:03;;;;;;;3.38;1.92;;;;;;;15.70;75.64;100825.69;4896863;29;20043;-79
2021/07/10 00:03:29;;;;;;;2.30;1.88;;;;;;;15.67;76.07;100831.91;4940154;29;20044;-78
2021/07/10 00:05:54;;;;;;;3.20;2.20;;;;;;;15.65;76.20;100823.00;4900253;29;20043;-78
2021/07/10 00:08:22;;;;;;;3.85;2.10;;;;;;;15.60;75.69;100818.38;4924295;29;20477;-78
2021/07/10 00:10:48;;;;;;;2.78;2.10;;;;;;;15.58;76.03;100815.06;4909289;29;20040;-78
2021/07/10 00:13:14;;;;;;;4.60;2.40;;;;;;;15.52;76.08;100816.34;4924851;29;20075;-78
2021/07/10 00:15:39;;;;;;;4.43;2.20;;;;;;;15.53;76.10;100809.59;4906848;29;20043;-70
2021/07/10 00:18:34;;;;;;;3.67;2.20;;;;;;;15.49;75.73;100807.75;4920794;29;20040;-77
2021/07/10 00:21:03;;;;;;;2.78;2.25;;;;;;;15.41;76.06;100801.78;4931823;29;20120;-76
2021/07/10 00:23:28;;;;;;;3.88;2.03;;;;;;;15.37;76.36;100809.16;4916978;29;20555;-72
2021/07/10 00:25:54;;;;;;;2.92;2.20;;;;;;;15.34;76.36;100804.19;4925237;29;20044;-70
2021/07/10 00:28:19;;;;;;;3.80;2.22;;;;;;;15.30;76.60;100797.59;4937589;29;20404;-70
2021/07/10 00:30:45;;;;;;;4.85;2.20;;;;;;;15.29;76.45;100795.94;4923492;29;20068;-70
2021/07/10 00:33:10;;;;;;;4.63;2.25;;;;;;;15.25;76.58;100791.31;4941676;29;20032;-69
2021/07/10 00:35:36;;;;;;;3.80;2.20;;;;;;;15.28;76.40;100785.09;4936980;29;20044;-70
2021/07/10 00:38:02;;;;;;;2.70;2.20;;;;;;;15.24;76.95;100776.50;4923194;29;20970;-70
2021/07/10 00:40:27;;;;;;;5.20;2.33;;;;;;;15.21;76.83;100785.53;4940008;29;20492;-71
2021/07/10 00:42:53;;;;;;;2.83;2.30;;;;;;;15.17;76.82;100774.13;4908371;29;20044;-70
2021/07/10 00:45:18;;;;;;;3.63;2.50;;;;;;;15.16;77.02;100768.88;4924627;29;20054;-71
2021/07/10 00:47:44;;;;;;;3.08;1.98;;;;;;;15.10;76.96;100768.19;4922663;29;20047;-71
2021/07/10 00:50:15;;;;;;;7.78;2.20;;;;;;;15.08;76.96;100770.47;4924468;29;20083;-70
2021/07/10 00:52:40;;;;;;;3.28;2.20;;;;;;;15.09;77.01;100774.09;4918916;29;20046;-70
2021/07/10 00:55:07;;;;;;;5.13;2.20;;;;;;;15.02;77.22;100777.34;4922511;29;20032;-71
2021/07/10 00:57:33;;;;;;;2.65;2.00;;;;;;;15.02;77.30;100759.72;4923451;29;20048;-71
2021/07/10 00:59:58;;;;;;;3.22;1.92;;;;;;;15.00;77.28;100753.63;4921303;29;20050;-71
2021/07/10 01:02:24;;;;;;;3.47;2.28;;;;;;;14.95;77.16;100749.78;4902405;29;20043;-71
2021/07/10 01:04:49;;;;;;;2.80;2.08;;;;;;;14.95;77.38;100760.97;4924169;29;20104;-71
2021/07/10 01:07:15;;;;;;;6.25;2.33;;;;;;;14.94;77.50;100770.53;4920874;29;20123;-71
2021/07/10 01:09:40;;;;;;;4.43;1.95;;;;;;;14.92;77.32;100767.22;4922619;29;20083;-71
2021/07/10 01:12:06;;;;;;;4.25;2.15;;;;;;;14.90;77.53;100769.50;4914109;29;20054;-70
2021/07/10 01:14:32;;;;;;;3.13;2.03;;;;;;;14.87;77.76;100769.31;4919240;29;20028;-70
2021/07/10 01:16:58;;;;;;;5.00;2.10;;;;;;;14.88;77.84;100759.78;4940595;29;20044;-70
2021/07/10 01:19:26;;;;;;;2.92;2.05;;;;;;;14.86;77.91;100768.47;4938975;29;20115;-70
2021/07/10 01:21:52;;;;;;;3.42;2.08;;;;;;;14.85;78.17;100761.25;4923402;29;20158;-71
2021/07/10 01:24:18;;;;;;;6.47;2.00;;;;;;;14.86;78.30;100746.13;4939993;29;20074;-71
2021/07/10 01:26:43;;;;;;;3.88;2.20;;;;;;;14.86;78.48;100736.91;4922437;29;20392;-71
2021/07/10 01:29:09;;;;;;;2.88;2.00;;;;;;;14.87;78.43;100730.97;4923708;29;20044;-73
2021/07/10 01:31:34;;;;;;;3.83;2.03;;;;;;;14.89;78.48;100730.69;4908731;29;20040;-77
2021/07/10 01:34:00;;;;;;;3.70;1.80;;;;;;;14.90;78.40;100741.53;4893420;29;20043;-78
2021/07/10 01:36:27;;;;;;;2.17;1.60;;;;;;;14.86;78.21;100746.13;4923068;29;20044;-77
2021/07/10 01:38:53;;;;;;;2.40;1.77;;;;;;;14.86;78.38;100743.31;4922733;29;20067;-78
2021/07/10 01:41:18;;;;;;;4.28;2.15;;;;;;;14.90;78.20;100749.09;4906210;29;20043;-77
2021/07/10 01:43:44;;;;;;;3.70;1.70;;;;;;;14.87;78.66;100756.16;4911861;29;20040;-77
2021/07/10 01:46:09;;;;;;;4.85;2.03;;;;;;;14.88;78.86;100755.03;4921001;29;20079;-75
2021/07/10 01:48:35;;;;;;;5.30;3.13;;;;;;;14.92;78.98;100744.84;4935657;29;20064;-77
2021/07/10 01:51:00;;;;;;;5.07;3.20;;;;;;;14.88;78.61;100743.00;4939478;29;20058;-78
2021/07/10 01:53:26;;;;;;;6.32;3.58;;;;;;;14.96;78.48;100745.06;4921551;29;20040;-78
2021/07/10 01:55:52;;;;;;;3.85;3.10;;;;;;;14.94;78.51;100744.53;4921927;29;20381;-78
2021/07/10 01:58:17;;;;;;;6.30;3.20;;;;;;;14.92;78.95;100739.25;4929420;29;20046;-78
2021/07/10 02:00:44;;;;;;;5.55;3.40;;;;;;;14.92;78.94;100736.44;4909871;29;20039;-77
2021/07/10 02:03:13;;;;;;;5.55;3.42;;;;;;;14.94;78.76;100736.16;4931533;29;20038;-77
2021/07/10 02:05:39;;;;;;;6.75;3.65;;;;;;;14.94;79.01;100733.34;4926361;29;20047;-78
2021/07/10 02:08:06;;;;;;;5.47;3.70;;;;;;;14.94;78.88;100736.97;4924938;29;20042;-78
2021/07/10 02:10:32;;;;;;;7.25;4.00;;;;;;;14.91;78.47;100725.59;4913480;29;20412;-78
2021/07/10 02:13:09;;;;;;;6.45;3.80;;;;;;;14.94;79.06;100731.38;4908409;29;20074;-79
2021/07/10 02:15:35;;;;;;;6.47;3.45;;;;;;;14.93;78.71;100740.06;4928008;29;20051;-79
2021/07/10 02:18:01;;;;;;;7.50;3.95;;;;;;;14.93;79.28;100740.91;4926635;29;20032;-79
2021/07/10 02:20:26;;;;;;;6.78;3.72;;;;;;;14.95;78.93;100741.41;4908274;29;20043;-79
2021/07/10 02:22:52;;;;;;;7.43;3.47;;;;;;;14.96;79.02;100734.69;4931075;29;20043;-79
2021/07/10 02:25:19;;;;;;;7.18;3.35;;;;;;;14.95;79.40;100730.22;4926435;29;20040;-79
2021/07/10 02:27:44;;;;;;;4.70;3.50;;;;;;;14.94;78.88;100720.19;4925619;29;20067;-79
2021/07/10 02:30:16;;;;;;;5.13;3.58;;;;;;;14.94;79.24;100716.56;4906184;29;20385;-80
2021/07/10 02:32:41;;;;;;;4.95;3.40;;;;;;;14.94;79.09;100713.78;4920861;29;20424;-79
2021/07/10 02:35:09;;;;;;;4.22;3.40;;;;;;;14.94;78.90;100711.78;4907032;29;20040;-79
2021/07/10 02:37:35;;;;;;;5.03;3.45;;;;;;;14.95;79.22;100699.47;4906105;29;20054;-79
2021/07/10 02:40:02;;;;;;;5.93;3.58;;;;;;;14.96;79.26;100695.53;4890700;29;20388;-79
2021/07/10 02:42:28;;;;;;;6.75;4.10;;;;;;;14.94;78.97;100683.84;4921584;29;20043;-79
2021/07/10 02:44:53;;;;;;;6.22;3.65;;;;;;;14.94;79.28;100675.44;4906400;29;20040;-79
2021/07/10 02:47:19;;;;;;;4.78;3.17;;;;;;;14.93;79.02;100668.22;4890729;29;20131;-79
2021/07/10 02:49:44;;;;;;;4.82;3.45;;;;;;;14.91;78.83;100676.09;4922724;29;20508;-79
2021/07/10 02:52:11;;;;;;;4.75;3.75;;;;;;;14.92;79.18;100666.53;4919875;29;20388;-79
2021/07/10 02:54:37;;;;;;;5.60;3.60;;;;;;;14.89;78.81;100656.00;4921333;29;20610;-79
2021/07/10 02:57:03;;;;;;;4.65;3.03;;;;;;;14.89;79.25;100647.59;4938315;29;20147;-79
2021/07/10 02:59:29;;;;;;;5.22;3.80;;;;;;;14.90;78.70;100640.03;4922942;29;20044;-79
2021/07/10 03:01:54;;;;;;;6.30;3.80;;;;;;;14.91;79.11;100661.28;4929558;29;20039;-79
2021/07/10 03:04:20;;;;;;;4.38;3.60;;;;;;;14.89;79.19;100674.75;4943990;29;20031;-79
2021/07/10 03:06:45;;;;;;;4.40;3.45;;;;;;;14.87;78.80;100675.06;4925893;29;20115;-79
2021/07/10 03:09:11;;;;;;;5.38;3.10;;;;;;;14.85;79.24;100666.19;4927723;29;20099;-78
2021/07/10 03:11:36;;;;;;;4.30;3.17;;;;;;;14.85;79.05;100670.94;4945402;29;20043;-80
2021/07/10 03:14:02;;;;;;;5.93;3.28;;;;;;;14.84;78.99;100670.09;4928034;29;20043;-79
2021/07/10 03:16:28;;;;;;;4.57;3.15;;;;;;;14.82;78.95;100668.78;4912848;29;20130;-79
2021/07/10 03:18:53;;;;;;;4.57;3.03;;;;;;;14.83;78.94;100668.47;4942872;29;20083;-79
2021/07/10 03:21:19;;;;;;;4.57;3.30;;;;;;;14.83;79.60;100657.28;4928149;29;20495;-79
2021/07/10 03:23:44;;;;;;;6.32;3.03;;;;;;;14.83;79.18;100646.09;4944701;29;20040;-79
2021/07/10 03:26:10;;;;;;;7.70;3.05;;;;;;;14.81;79.91;100636.38;4910670;29;20488;-79
2021/07/10 03:28:35;;;;;;;5.32;3.08;;;;;;;14.80;79.67;100627.16;4927276;29;20033;-79
2021/07/10 03:31:01;;;;;;;4.05;2.72;;;;;;;14.80;79.61;100612.38;4921584;29;20043;-79
2021/07/10 03:33:27;;;;;;;3.70;3.10;;;;;;;14.77;79.34;100622.22;4905434;29;20043;-79
2021/07/10 03:35:52;;;;;;;3.70;2.97;;;;;;;14.77;79.50;100618.59;4912545;29;20480;-79
2021/07/10 03:38:18;;;;;;;3.97;2.72;;;;;;;14.77;79.18;100611.03;4911605;29;20039;-79
2021/07/10 03:40:43;;;;;;;3.80;2.80;;;;;;;14.71;79.82;100607.56;4926713;29;20039;-79
2021/07/10 03:43:09;;;;;;;4.22;2.88;;;;;;;14.71;79.64;100604.75;4928574;29;20126;-79
2021/07/10 03:45:34;;;;;;;6.38;2.90;;;;;;;14.72;79.85;100599.97;4928048;29;20448;-79
2021/07/10 03:48:00;;;;;;;3.97;2.95;;;;;;;14.69;79.69;100600.63;4927140;29;20032;-79
2021/07/10 03:50:27;;;;;;;3.60;2.90;;;;;;;14.68;79.98;100604.53;4942734;29;20156;-79
2021/07/10 03:52:53;;;;;;;3.17;2.75;;;;;;;14.69;80.22;100606.22;4912471;29;20039;-79
2021/07/10 03:55:18;;;;;;;3.53;2.70;;;;;;;14.63;79.84;100594.34;4928197;29;20111;-79
2021/07/10 03:57:44;;;;;;;5.47;2.88;;;;;;;14.64;80.15;100586.78;4944302;29;20047;-79
2021/07/10 04:00:12;;;;;;;3.65;2.92;;;;;;;14.63;79.85;100569.19;4926152;29;20074;-79
2021/07/10 04:02:37;;;;;;;3.50;2.60;;;;;;;14.60;79.93;100580.16;4927174;29;20036;-79
2021/07/10 04:05:04;;;;;;;4.93;2.83;;;;;;;14.56;79.80;100579.16;4909384;29;20052;-79
2021/07/10 04:07:32;;;;;;;2.97;2.60;;;;;;;14.58;79.93;100590.84;4945206;29;20055;-79
2021/07/10 04:09:59;;;;;;;4.03;2.83;;;;;;;14.55;80.43;100594.28;4925708;29;20621;-79
2021/07/10 04:12:25;;;;;;;3.05;2.35;;;;;;;14.53;80.24;100589.81;4938828;29;20063;-79
2021/07/10 04:14:51;;;;;;;4.68;3.22;;;;;;;14.50;80.39;100582.06;4925795;29;20111;-79
2021/07/10 04:17:16;;;;;;;4.13;3.00;;;;;;;14.50;80.75;100587.63;4905738;29;20046;-79
2021/07/10 04:19:42;;;;;;;5.88;2.80;;;;;;;14.46;80.30;100578.25;4908873;29;20048;-79
2021/07/10 04:22:07;;;;;;;3.67;2.55;;;;;;;14.47;80.44;100574.31;4925707;29;20050;-79
2021/07/10 04:24:33;;;;;;;4.72;2.70;;;;;;;14.45;80.40;100567.38;4909362;29;20052;-79
2021/07/10 04:26:59;;;;;;;5.15;2.53;;;;;;;14.42;80.35;100574.44;4908260;29;20074;-79
2021/07/10 04:29:24;;;;;;;3.03;2.60;;;;;;;14.43;80.40;100570.50;4907928;29;20039;-79
2021/07/10 04:31:50;;;;;;;3.20;2.75;;;;;;;14.42;80.55;100574.44;4937666;29;20044;-79
2021/07/10 04:34:15;;;;;;;3.28;2.67;;;;;;;14.40;80.66;100571.16;4923746;29;20126;-79
2021/07/10 04:36:41;;;;;;;3.00;2.50;;;;;;;14.40;80.71;100585.13;4924646;29;20047;-79
2021/07/10 04:39:07;;;;;;;4.70;2.80;;;;;;;14.40;80.67;100584.28;4940894;29;20552;-79
2021/07/10 04:41:32;;;;;;;3.70;2.70;;;;;;;14.38;80.87;100573.44;4942923;29;20047;-79
2021/07/10 04:43:58;;;;;;;4.85;2.80;;;;;;;14.37;80.56;100565.34;4937964;29;20501;-79
2021/07/10 04:46:23;;;;;;;2.90;2.50;;;;;;;14.39;81.18;100563.91;4908173;29;20043;-79
2021/07/10 04:48:49;;;;;;;3.60;2.80;;;;;;;14.36;81.01;100558.94;4908698;29;20054;-79
2021/07/10 04:51:15;;;;;;;4.57;2.75;;;;;;;14.40;80.90;100559.13;4922671;29;20035;-80
2021/07/10 04:53:40;;;;;;;3.17;2.40;;;;;;;14.36;81.07;100564.53;4908722;29;20039;-79
2021/07/10 04:56:06;;;;;;;3.30;2.58;;;;;;;14.38;81.33;100578.19;4908642;29;20115;-79
2021/07/10 04:58:31;;;;;;;2.83;2.47;;;;;;;14.35;81.16;100579.66;4923549;29;20035;-79
2021/07/10 05:00:57;;;;;;;4.43;2.80;;;;;;;14.36;81.33;100589.69;4939036;29;20543;-79
2021/07/10 05:03:22;;;;;;;3.53;2.55;;;;;;;14.39;81.48;100593.81;4939445;29;20044;-79
2021/07/10 05:05:48;;;;;;;3.10;2.45;;;;;;;14.37;81.73;100582.13;4941066;29;20043;-79
2021/07/10 05:08:14;;;;;;;3.15;2.70;;;;;;;14.38;82.17;100584.59;4909514;29;20043;-79
2021/07/10 05:10:39;;;;;;;3.05;2.30;;;;;;;14.39;82.44;100583.47;4920577;29;20048;-79
2021/07/10 05:13:05;;;;;;;4.93;3.05;;;;;;;14.41;82.37;100574.78;4916455;29;20520;-78
2021/07/10 05:15:31;;;;;;;5.20;2.78;;;;;;;14.42;82.15;100585.59;4922538;29;20112;-79
2021/07/10 05:17:58;;;;;;;4.20;2.50;;;;;;;14.43;83.06;100587.28;4923410;29;20404;-78
2021/07/10 05:20:24;;;;;;;4.32;2.85;;;;;;;14.46;83.31;100589.44;4907227;29;20504;-78
2021/07/10 05:22:50;;;;;;;3.83;3.13;;;;;;;14.48;83.40;100589.09;4922626;29;20181;-79
2021/07/10 05:25:15;;;;;;;5.15;2.70;;;;;;;14.49;83.04;100588.78;4906924;29;20036;-78
2021/07/10 05:27:41;;;;;;;4.55;2.80;;;;;;;14.52;82.62;100592.94;4908312;29;20046;-78
2021/07/10 05:30:10;;;;;;;5.82;3.00;;;;;;;14.51;82.22;100592.09;4937931;29;20036;-79
2021/07/10 05:32:35;;;;;;;3.30;2.85;;;;;;;14.53;82.42;100589.81;4921735;29;20044;-78
2021/07/10 05:35:01;;;;;;;3.35;2.60;;;;;;;14.56;82.72;100590.34;4923253;29;20432;-79
2021/07/10 05:37:26;;;;;;;4.22;2.45;;;;;;;14.59;82.45;100586.91;4921649;29;20095;-78
2021/07/10 05:39:52;;;;;;;4.25;2.50;;;;;;;14.61;83.15;100587.41;4923265;29;20040;-79
2021/07/10 05:42:18;;;;;;;4.57;2.95;;;;;;;14.60;82.44;100588.53;4922218;29;20404;-79
2021/07/10 05:44:43;;;;;;;3.17;2.38;;;;;;;14.63;81.69;100582.34;4906369;29;20040;-78
2021/07/10 05:47:09;;;;;;;4.03;2.25;;;;;;;14.64;82.58;100573.63;4907702;29;20042;-79
2021/07/10 05:49:34;;;;;;;3.63;2.85;;;;;;;14.62;82.32;100573.09;4921915;29;20060;-79
2021/07/10 05:52:00;;;;;;;3.40;2.20;;;;;;;14.65;81.58;100583.66;4938709;29;20087;-79
2021/07/10 05:54:25;;;;;;;3.70;2.60;;;;;;;14.68;82.27;100587.78;4904379;29;20427;-79
2021/07/10 05:56:52;;;;;;;4.78;2.80;;;;;;;14.69;82.96;100581.06;4922317;29;20054;-79
2021/07/10 05:59:17;;;;;;;3.55;2.47;;;;;;;14.70;83.06;100579.91;4922021;29;20040;-78
2021/07/10 06:01:43;;;;;;;3.00;2.65;;;;;;;14.69;82.61;100579.09;4922179;29;20047;-78
2021/07/10 06:04:08;;;;;;;2.55;2.35;;;;;;;14.72;82.10;100578.44;4905797;29;20040;-79
2021/07/10 06:06:34;;;;;;;3.58;2.50;;;;;;;14.72;81.59;100567.25;4921042;29;20040;-76
2021/07/10 06:08:59;;;;;;;6.10;2.90;;;;;;;14.73;82.90;100562.47;4921827;29;20048;-76
2021/07/10 06:11:26;;;;;;;3.20;2.60;;;;;;;14.73;81.93;100563.31;4937973;29;20044;-76
2021/07/10 06:13:51;;;;;;;3.08;2.70;;;;;;;14.74;82.86;100558.56;4938292;29;20040;-76
2021/07/10 06:16:17;;;;;;;3.72;2.47;;;;;;;14.73;82.75;100563.31;4939367;29;20408;-76
2021/07/10 06:18:42;;;;;;;5.53;3.22;;;;;;;14.73;81.98;100556.91;4939657;29;20032;-76
2021/07/10 06:21:08;;;;;;;4.57;2.78;;;;;;;14.75;82.13;100560.19;4939665;29;20130;-76
2021/07/10 06:23:33;;;;;;;3.83;2.80;;;;;;;14.72;82.09;100566.44;4922038;29;20394;-76
2021/07/10 06:25:59;;;;;;;3.28;2.42;;;;;;;14.71;82.03;100570.38;4939744;29;20412;-76
2021/07/10 06:28:25;;;;;;;3.15;2.60;;;;;;;14.71;82.36;100568.41;4922660;29;20070;-76
2021/07/10 06:30:50;;;;;;;5.28;2.70;;;;;;;14.70;82.10;100571.50;4938849;29;20065;-76
2021/07/10 06:33:16;;;;;;;3.78;3.00;;;;;;;14.72;82.39;100577.63;4939547;29;20036;-76
2021/07/10 06:35:41;;;;;;;5.25;2.60;;;;;;;14.70;82.40;100568.72;4938877;29;20047;-76
2021/07/10 06:38:07;;;;;;;4.22;2.83;;;;;;;14.69;82.18;100565.09;4938118;29;20043;-76
2021/07/10 06:40:32;;;;;;;7.78;2.92;;;;;;;14.69;81.65;100569.88;4922647;29;20054;-76
2021/07/10 06:42:58;;;;;;;5.38;2.72;;;;;;;14.69;82.37;100561.50;4920449;29;20071;-77
2021/07/10 06:45:23;;;;;;;4.22;2.90;;;;;;;14.67;82.26;100553.41;4921159;29;20052;-77
2021/07/10 06:47:49;;;;;;;4.10;2.72;;;;;;;14.69;82.46;100556.72;4891021;29;20059;-77
2021/07/10 06:50:17;;;;;;;3.35;2.70;;;;;;;14.69;82.25;100562.31;4922098;29;20043;-77
2021/07/10 06:52:43;;;;;;;5.25;3.10;;;;;;;14.69;82.62;100559.50;4928753;29;20043;-77
2021/07/10 06:55:10;;;;;;;3.05;2.30;;;;;;;14.71;83.06;100554.44;4923264;29;20054;-76
2021/07/10 06:57:35;;;;;;;3.20;2.30;;;;;;;14.69;82.24;100555.91;4938595;29;20036;-76
2021/07/10 07:00:01;;;;;;;3.85;2.53;;;;;;;14.72;82.37;100555.25;4921139;29;20381;-77
2021/07/10 07:02:27;;;;;;;3.35;2.83;;;;;;;14.74;83.06;100551.00;4921917;29;20040;-77
2021/07/10 07:04:52;;;;;;;4.32;2.72;;;;;;;14.75;82.76;100549.03;4923030;29;20095;-71
2021/07/10 07:07:18;;;;;;;4.15;2.53;;;;;;;14.81;82.64;100555.28;4939317;29;20051;-73
2021/07/10 07:09:43;;;;;;;3.25;2.67;;;;;;;14.81;82.95;100550.53;4922335;29;20047;-75
2021/07/10 07:12:09;;;;;;;6.75;3.28;;;;;;;14.82;82.60;100537.38;4922710;29;20504;-74
2021/07/10 07:14:34;;;;;;;5.05;2.75;;;;;;;14.86;82.60;100539.19;4905326;29;20481;-74
2021/07/10 07:17:00;;;;;;;4.57;2.70;;;;;;;14.90;82.80;100537.41;4905061;29;20048;-74
2021/07/10 07:19:26;;;;;;;3.53;2.60;;;;;;;14.93;82.93;100544.31;4908520;29;20082;-76
2021/07/10 07:21:52;;;;;;;2.60;2.40;;;;;;;14.96;82.68;100541.72;4890954;29;20051;-74
2021/07/10 07:24:18;;;;;;;4.45;2.85;;;;;;;15.01;83.09;100539.91;4921381;29;20028;-76
2021/07/10 07:26:43;;;;;;;3.95;3.17;;;;;;;15.06;84.73;100536.97;4939504;29;20044;-75
2021/07/10 07:29:09;;;;;;;4.82;3.03;;;;;;;15.11;83.19;100545.22;4937385;29;20043;-75
2021/07/10 07:31:35;;;;;;;4.65;2.78;;;;;;;15.15;83.58;100544.25;4938221;29;20557;-76
2021/07/10 07:34:00;;;;;;;4.10;3.05;;;;;;;15.18;84.49;100542.75;4938381;29;20452;-75
2021/07/10 07:36:26;;;;;;;4.45;3.17;;;;;;;15.25;84.62;100543.13;4938048;29;20074;-76
2021/07/10 07:38:51;;;;;;;7.47;3.65;;;;;;;15.29;84.36;100540.50;4938964;29;20039;-76
2021/07/10 07:41:18;;;;;;;4.80;2.83;;;;;;;15.34;83.41;100543.97;4905462;29;20040;-76
2021/07/10 07:43:44;;;;;;;3.83;3.00;;;;;;;15.36;83.42;100530.47;4922977;29;20038;-75
2021/07/10 07:46:09;;;;;;;4.15;3.10;;;;;;;15.40;83.44;100548.25;4923991;29;20039;-75
2021/07/10 07:48:35;;;;;;;3.95;3.28;;;;;;;15.44;84.29;100542.03;4909738;29;20043;-76
2021/07/10 07:51:02;;;;;;;3.47;2.88;;;;;;;15.49;83.92;100539.06;4911232;29;20039;-76
2021/07/10 07:53:27;;;;;;;4.60;3.40;;;;;;;15.53;83.75;100537.28;4934415;29;20067;-76
2021/07/10 07:55:54;;;;;;;4.30;2.88;;;;;;;15.56;84.10;100536.63;4927002;29;20079;-75
2021/07/10 07:58:20;;;;;;;5.45;3.40;;;;;;;15.58;84.29;100537.13;4925854;29;20095;-76
2021/07/10 08:00:45;;;;;;;7.72;3.70;;;;;;;15.62;84.39;100536.13;4938771;29;20396;-75
2021/07/10 08:03:11;;;;;;;3.60;2.92;;;;;;;15.65;84.25;100537.44;4925494;29;20039;-75
2021/07/10 08:05:36;;;;;;;5.68;3.30;;;;;;;15.68;83.82;100528.41;4906983;29;20044;-76
2021/07/10 08:08:02;;;;;;;5.85;3.80;;;;;;;15.72;84.06;100525.81;4908826;29;20042;-76
2021/07/10 08:10:27;;;;;;;4.28;3.75;;;;;;;15.74;84.02;100531.88;4910413;29;20046;-76
2021/07/10 08:12:53;;;;;;;5.30;3.38;;;;;;;15.75;83.39;100523.16;4924765;29;20051;-75
2021/07/10 08:15:21;;;;;;;4.53;3.47;;;;;;;15.79;83.85;100512.94;4926217;29;20042;-76
2021/07/10 08:17:47;;;;;;;5.35;3.50;;;;;;;15.82;83.85;100515.09;4925058;29;20408;-75
2021/07/10 08:20:13;;;;;;;7.13;4.80;;;;;;;15.86;85.51;100507.69;4906672;29;20048;-75
2021/07/10 08:22:39;;;;;;;6.25;4.20;;;;;;;15.86;84.82;100516.06;4907711;29;20571;-75
2021/07/10 08:25:05;;;;;;;6.00;3.80;;;;;;;15.93;84.66;100514.75;4940725;29;20167;-75
2021/07/10 08:27:31;;;;;;;5.47;4.20;;;;;;;15.98;84.48;100518.22;4924328;29;20075;-75
2021/07/10 08:29:56;;;;;;;4.35;3.70;;;;;;;16.02;84.43;100513.59;4895908;29;20046;-75
2021/07/10 08:32:22;;;;;;;4.82;3.55;;;;;;;16.05;84.19;100517.72;4924627;29;20035;-74
2021/07/10 08:34:47;;;;;;;5.13;3.80;;;;;;;16.09;85.27;100518.69;4924317;29;20082;-75
2021/07/10 08:37:13;;;;;;;7.15;4.20;;;;;;;16.12;84.78;100509.63;4925227;29;20035;-75
2021/07/10 08:39:39;;;;;;;4.65;3.75;;;;;;;16.17;85.35;100508.66;4909314;29;20110;-75
2021/07/10 08:42:05;;;;;;;5.55;4.20;;;;;;;16.21;85.81;100504.81;4893404;29;20047;-75
2021/07/10 08:44:30;;;;;;;5.53;3.72;;;;;;;16.23;85.40;100502.53;4907996;29;20482;-75
2021/07/10 08:46:56;;;;;;;4.65;3.63;;;;;;;16.27;85.50;100502.72;4908865;29;20044;-75
2021/07/10 08:49:21;;;;;;;6.15;3.85;;;;;;;16.31;85.60;100500.88;4908862;29;20039;-75
2021/07/10 08:51:47;;;;;;;3.85;3.30;;;;;;;16.36;85.71;100491.47;4908534;29;20099;-75
2021/07/10 08:54:15;;;;;;;4.82;3.53;;;;;;;16.41;85.98;100499.69;4923513;29;20042;-75
2021/07/10 08:56:41;;;;;;;5.93;4.07;;;;;;;16.44;87.06;100491.44;4924243;29;20054;-75
2021/07/10 08:59:10;;;;;;;4.68;4.05;;;;;;;16.48;86.56;100497.19;4924105;29;20091;-75
2021/07/10 09:01:36;;;;;;;4.28;3.15;;;;;;;16.51;86.08;100491.75;4923347;29;20039;-75
2021/07/10 09:04:01;;;;;;;5.22;3.03;;;;;;;16.57;85.45;100500.78;4940716;29;20055;-75
2021/07/10 09:06:27;;;;;;;4.65;3.47;;;;;;;16.57;85.83;100492.38;4923352;29;20035;-75
2021/07/10 09:08:55;;;;;;;3.67;2.75;;;;;;;16.58;85.98;100494.03;4923695;29;20400;-75
2021/07/10 09:11:20;;;;;;;5.35;3.00;;;;;;;16.62;85.59;100491.38;4908628;29;20040;-75
2021/07/10 09:13:51;;;;;;;7.53;3.35;;;;;;;16.65;85.83;100497.13;4908877;29;20136;-76
2021/07/10 09:16:29;;;;;;;4.38;2.67;;;;;;;16.67;85.82;100503.25;4908654;29;20078;-75
2021/07/10 09:19:02;;;;;;;3.63;2.63;;;;;;;16.67;85.09;100500.44;4924880;29;20044;-75
2021/07/10 09:21:43;;;;;;;5.78;3.00;;;;;;;16.66;85.25;100498.81;4923138;29;20534;-75
2021/07/10 09:24:14;;;;;;;4.28;3.13;;;;;;;16.66;85.71;100501.59;4909411;29;20042;-76
2021/07/10 09:26:44;;;;;;;6.13;3.25;;;;;;;16.65;85.50;100493.50;4908837;29;20047;-76
2021/07/10 09:29:19;;;;;;;4.72;2.75;;;;;;;16.64;85.39;100494.69;4923630;29;20410;-76
2021/07/10 09:31:53;;;;;;;4.53;2.80;;;;;;;16.63;85.30;100493.88;4907296;29;20122;-76
2021/07/10 09:34:20;;;;;;;4.55;3.10;;;;;;;16.63;85.76;100498.63;4950276;29;20040;-77
2021/07/10 09:36:53;;;;;;;7.88;3.13;;;;;;;16.59;86.54;100492.88;4940207;29;20074;-76
2021/07/10 09:39:20;;;;;;;4.40;2.78;;;;;;;16.58;86.36;100493.22;4907231;29;20110;-77
2021/07/10 09:41:45;;;;;;;3.63;2.70;;;;;;;16.57;86.32;100491.56;4908847;29;20043;-77
2021/07/10 09:44:12;;;;;;;5.18;2.65;;;;;;;16.57;86.57;100492.38;4923374;29;20044;-77
2021/07/10 09:46:38;;;;;;;8.95;6.47;;;;;;;16.57;86.49;100491.56;4923857;29;20042;-73
2021/07/10 09:49:25;;;;;;;6.15;3.85;;;;;;;16.56;86.13;100482.34;4923327;29;20043;-73
2021/07/10 09:52:00;;;;;;;6.15;3.97;;;;;;;16.57;86.10;100489.56;4923140;29;20134;-73
2021/07/10 09:54:40;;;;;;;5.35;3.08;;;;;;;16.54;86.12;100490.25;4931426;29;20118;-73
2021/07/10 09:57:11;;;;;;;6.95;3.80;;;;;;;16.55;86.81;100483.50;4946599;29;20524;-72
2021/07/10 09:59:39;;;;;;;4.65;3.15;;;;;;;16.56;88.31;100490.75;4921775;29;20059;-74
2021/07/10 10:02:19;;;;;;;3.88;2.85;;;;;;;16.58;87.76;100487.63;4940721;29;20074;-73
2021/07/10 10:04:45;;;;;;;4.45;2.88;;;;;;;16.61;87.91;100484.16;4939849;29;20051;-73
2021/07/10 10:07:12;;;;;;;4.85;2.72;;;;;;;16.63;87.47;100481.81;4922121;29;20032;-73
2021/07/10 10:09:38;;;;;;;4.38;2.20;;;;;;;16.64;87.37;100489.91;4905379;29;20081;-73
2021/07/10 10:12:05;;;;;;;4.45;2.25;;;;;;;16.66;87.27;100484.78;4905745;29;20497;-73
2021/07/10 10:14:33;;;;;;;2.20;1.80;;;;;;;16.71;87.19;100486.56;4907464;29;20380;-73
2021/07/10 10:16:59;;;;;;;5.03;2.20;;;;;;;16.72;87.04;100480.63;4893275;29;20046;-73
2021/07/10 10:19:26;;;;;;;3.50;2.05;;;;;;;16.73;86.72;100476.66;4906302;29;20043;-73
2021/07/10 10:21:53;;;;;;;2.25;1.65;;;;;;;16.77;86.71;100484.41;4907654;29;20107;-73
2021/07/10 10:24:19;;;;;;;3.20;2.15;;;;;;;16.79;87.26;100488.53;4907938;29;20436;-73
2021/07/10 10:26:45;;;;;;;2.47;1.90;;;;;;;16.79;87.41;100487.72;4902274;29;20046;-73
2021/07/10 10:29:11;;;;;;;2.85;1.83;;;;;;;16.84;86.86;100484.72;4884663;29;20040;-72
2021/07/10 10:31:38;;;;;;;3.45;1.90;;;;;;;16.85;87.26;100484.38;4907180;29;20071;-73
2021/07/10 10:34:05;;;;;;;2.13;1.70;;;;;;;16.89;86.99;100484.56;4923184;29;20086;-73
2021/07/10 10:36:31;;;;;;;2.58;1.85;;;;;;;16.91;86.96;100487.81;4941043;29;20043;-73
2021/07/10 10:38:57;;;;;;;5.45;2.00;;;;;;;16.95;87.31;100494.41;4905085;29;20496;-72
2021/07/10 10:41:22;;;;;;;3.33;2.00;;;;;;;16.97;86.93;100489.28;4938887;29;20043;-72
2021/07/10 10:43:48;;;;;;;2.65;1.75;;;;;;;17.02;87.29;100493.88;4923018;29;20043;-73
2021/07/10 10:46:19;;;;;;;4.45;2.05;;;;;;;17.05;86.90;100488.44;4920077;29;20042;-72
2021/07/10 10:48:45;;;;;;;3.55;2.05;;;;;;;17.08;87.03;100490.56;4922597;29;20071;-73
2021/07/10 10:51:30;;;;;;;2.50;2.00;;;;;;;17.10;87.05;100496.63;4939425;29;20458;-73
2021/07/10 10:54:16;;;;;;;3.30;1.95;;;;;;;17.13;87.43;100495.13;4923303;29;20043;-73
2021/07/10 10:56:42;;;;;;;2.40;1.88;;;;;;;17.10;87.29;100488.22;4936727;29;20040;-73
2021/07/10 10:59:26;;;;;;;3.03;2.30;;;;;;;17.12;86.84;100485.06;4939175;29;20039;-73
2021/07/10 11:01:51;;;;;;;2.40;1.73;;;;;;;17.12;86.94;100488.69;4937685;29;20052;-73
2021/07/10 11:04:55;;;;;;;2.75;1.67;;;;;;;17.11;87.47;100489.06;4921799;29;20040;-73
2021/07/10 11:07:35;;;;;;;2.75;1.60;;;;;;;17.09;87.16;100480.16;4893474;29;20047;-73
2021/07/10 11:10:14;;;;;;;2.10;1.50;;;;;;;17.08;88.22;100476.53;4898681;29;20099;-73
2021/07/10 11:12:58;;;;;;;1.70;1.35;;;;;;;17.08;87.45;100487.75;4923552;29;20050;-73
2021/07/10 11:15:27;;;;;;;1.67;1.50;;;;;;;17.07;88.76;100480.47;4940144;29;20044;-73
2021/07/10 11:17:59;;;;;;;2.17;1.50;;;;;;;17.11;88.93;100480.63;4938225;29;20496;-73
2021/07/10 11:20:43;;;;;;;2.33;1.42;;;;;;;17.13;87.90;100483.91;4923553;29;20152;-73
2021/07/10 11:23:26;;;;;;;3.30;1.80;;;;;;;17.15;87.32;100485.22;4930579;29;20039;-73